Time;durP1;ratioP1;P1;durP2;ratioP2;P2;SDS_P1;SDS_P2;PMS_P1;PMS_P2;Temp;Humidity;BMP_temperature;BMP_pressure;BME280_temperature;BME280_humidity;BME280_pressure;Samples;Min_cycle;Max_cycle;Signal;HPM_P1;HPM_P2
2021/04/07 00:01:16;;;;;;;9.48;1.85;;;-0.50;99.90;;;;;;5066603;28;20040;-60
2021/04/07 00:03:42;;;;;;;11.88;2.30;;;-0.50;99.90;;;;;;5050299;28;20512;-60
2021/04/07 00:06:09;;;;;;;10.57;2.22;;;-0.50;99.90;;;;;;5046416;28;20088;-60
2021/04/07 00:08:36;;;;;;;13.65;2.20;;;-0.40;99.90;;;;;;5061589;28;20061;-60
2021/04/07 00:11:03;;;;;;;10.13;2.20;;;-0.40;99.90;;;;;;5066223;28;20128;-60
2021/04/07 00:13:29;;;;;;;10.85;2.05;;;-0.40;99.90;;;;;;5066090;28;20045;-60
2021/04/07 00:15:56;;;;;;;6.63;2.17;;;-0.50;99.90;;;;;;5052808;28;20046;-60
2021/04/07 00:18:23;;;;;;;13.52;2.63;;;-0.50;99.90;;;;;;5045759;28;20049;-60
2021/04/07 00:20:49;;;;;;;7.53;2.00;;;-0.50;99.90;;;;;;5064490;28;20128;-60
2021/04/07 00:23:16;;;;;;;12.52;2.00;;;-0.60;99.90;;;;;;5065490;28;20037;-60
2021/04/07 00:25:42;;;;;;;9.50;1.80;;;-0.60;99.90;;;;;;5065295;28;20116;-60
2021/04/07 00:28:10;;;;;;;12.55;2.90;;;-0.60;99.90;;;;;;5065685;28;20044;-60
2021/04/07 00:30:39;;;;;;;12.77;2.08;;;-0.60;99.90;;;;;;5065273;28;20445;-61
2021/04/07 00:33:07;;;;;;;7.20;2.38;;;-0.70;99.90;;;;;;5065554;28;20045;-60
2021/04/07 00:35:34;;;;;;;9.95;1.92;;;-0.70;99.90;;;;;;5065321;28;20077;-60
2021/04/07 00:38:00;;;;;;;8.40;2.33;;;-0.70;99.90;;;;;;5065597;28;20136;-60
2021/04/07 00:40:27;;;;;;;11.50;1.85;;;-0.70;99.90;;;;;;5065317;28;20041;-60
2021/04/07 00:42:54;;;;;;;20.30;2.63;;;-0.60;99.90;;;;;;5066142;28;20056;-60
2021/04/07 00:45:22;;;;;;;7.32;2.45;;;-0.60;99.90;;;;;;5065240;28;20109;-60
2021/04/07 00:47:50;;;;;;;10.38;2.08;;;-0.60;99.90;;;;;;5065346;28;20082;-60
2021/04/07 00:50:18;;;;;;;13.07;2.28;;;-0.50;99.90;;;;;;5065102;28;20049;-60
2021/04/07 00:52:44;;;;;;;11.27;1.92;;;-0.50;99.90;;;;;;5065071;28;20102;-60
2021/04/07 00:55:12;;;;;;;7.57;2.30;;;-0.60;99.90;;;;;;5065788;28;20136;-60
2021/04/07 00:57:42;;;;;;;12.50;2.38;;;-0.50;99.90;;;;;;5065988;28;20052;-60
2021/04/07 01:00:11;;;;;;;13.38;2.53;;;-0.50;99.90;;;;;;5065748;28;20131;-60
2021/04/07 01:02:38;;;;;;;9.48;1.67;;;-0.50;99.90;;;;;;5065337;28;20107;-60
2021/04/07 01:05:08;;;;;;;8.15;1.95;;;-0.50;99.90;;;;;;5064321;28;20049;-60
2021/04/07 01:07:35;;;;;;;9.52;2.15;;;-0.40;99.90;;;;;;5064789;28;20049;-60
2021/04/07 01:10:05;;;;;;;12.65;2.47;;;-0.30;99.90;;;;;;5064989;28;20061;-60
2021/04/07 01:12:35;;;;;;;15.10;2.47;;;-0.40;99.90;;;;;;5065989;28;20041;-60
2021/04/07 01:15:04;;;;;;;9.77;3.28;;;-0.40;99.90;;;;;;5065589;28;20052;-60
2021/04/07 01:17:31;;;;;;;12.95;2.10;;;-0.40;99.90;;;;;;5064916;28;20092;-60
2021/04/07 01:19:58;;;;;;;9.75;2.10;;;-0.50;99.90;;;;;;5064356;28;20139;-60
2021/04/07 01:22:26;;;;;;;10.57;2.00;;;-0.50;99.90;;;;;;5064615;28;20098;-60
2021/04/07 01:24:52;;;;;;;9.80;1.98;;;-0.50;99.90;;;;;;5065277;28;20493;-60
2021/04/07 01:27:19;;;;;;;12.07;2.83;;;-0.60;99.90;;;;;;5064375;28;20138;-60
2021/04/07 01:29:45;;;;;;;10.25;2.55;;;-0.60;99.90;;;;;;5064360;28;20075;-60
2021/04/07 01:32:12;;;;;;;10.27;2.85;;;-0.50;99.90;;;;;;5063840;28;20049;-60
2021/04/07 01:34:43;;;;;;;9.80;2.20;;;-0.40;99.90;;;;;;5064149;28;20075;-60
2021/04/07 01:37:13;;;;;;;13.00;2.28;;;-0.30;99.90;;;;;;5064380;28;20044;-60
2021/04/07 01:39:40;;;;;;;12.68;2.42;;;-0.30;99.90;;;;;;5064395;28;20045;-60
2021/04/07 01:42:08;;;;;;;9.88;3.00;;;-0.20;99.90;;;;;;5064267;28;20098;-60
2021/04/07 01:44:39;;;;;;;15.95;2.40;;;-0.10;99.90;;;;;;5064183;28;20068;-60
2021/04/07 01:47:07;;;;;;;10.98;2.60;;;0.00;99.90;;;;;;5064550;28;20045;-60
2021/04/07 01:49:34;;;;;;;9.50;2.55;;;0.10;99.90;;;;;;5063788;28;20056;-60
2021/04/07 01:52:02;;;;;;;12.38;2.50;;;0.10;99.90;;;;;;5064750;28;20041;-60
2021/04/07 01:54:28;;;;;;;9.57;2.22;;;0.10;99.90;;;;;;5064477;28;20125;-60
2021/04/07 01:56:57;;;;;;;9.40;2.40;;;0.10;99.90;;;;;;5064320;28;20056;-60
2021/04/07 01:59:30;;;;;;;12.27;2.30;;;0.10;99.90;;;;;;5064042;28;20049;-60
2021/04/07 02:01:58;;;;;;;19.95;3.78;;;0.10;99.90;;;;;;5051085;28;20128;-60
2021/04/07 02:04:25;;;;;;;15.07;3.25;;;0.00;99.90;;;;;;5064088;28;20052;-60
2021/04/07 02:06:53;;;;;;;10.43;2.10;;;0.10;99.90;;;;;;5064850;28;20060;-60
2021/04/07 02:09:20;;;;;;;7.70;2.50;;;0.10;99.90;;;;;;5064507;28;20049;-60
2021/04/07 02:11:49;;;;;;;9.25;2.65;;;0.10;99.90;;;;;;5064371;28;20075;-60
2021/04/07 02:14:16;;;;;;;12.30;2.08;;;0.10;99.90;;;;;;5063862;28;20047;-60
2021/04/07 02:16:53;;;;;;;10.45;2.08;;;0.10;99.90;;;;;;5064030;28;20044;-60
2021/04/07 02:19:25;;;;;;;7.45;2.13;;;0.20;99.90;;;;;;5063305;28;20505;-60
2021/04/07 02:22:13;;;;;;;9.30;2.00;;;0.10;99.90;;;;;;5064938;28;20071;-60
2021/04/07 02:24:41;;;;;;;13.18;2.22;;;0.10;99.90;;;;;;5064853;28;20041;-60
2021/04/07 02:27:17;;;;;;;10.27;2.25;;;0.10;99.90;;;;;;5063957;28;20045;-60
2021/04/07 02:29:45;;;;;;;13.70;2.33;;;0.10;99.90;;;;;;5064210;28;20394;-60
2021/04/07 02:32:13;;;;;;;13.27;2.42;;;0.10;99.90;;;;;;5064670;28;20072;-60
2021/04/07 02:34:42;;;;;;;10.52;2.33;;;0.20;99.90;;;;;;5063971;28;20037;-60
2021/04/07 02:37:12;;;;;;;8.75;1.70;;;0.30;99.90;;;;;;5062713;28;20068;-60
2021/04/07 02:39:39;;;;;;;7.38;2.22;;;0.40;99.90;;;;;;5063380;28;20051;-60
2021/04/07 02:42:06;;;;;;;8.93;1.83;;;0.40;99.90;;;;;;5064610;28;20104;-61
2021/04/07 02:44:34;;;;;;;10.48;2.35;;;0.50;99.90;;;;;;5067632;28;20041;-60
2021/04/07 02:47:01;;;;;;;10.88;2.25;;;0.50;99.90;;;;;;5068091;28;20044;-60
2021/04/07 02:49:27;;;;;;;6.93;1.60;;;0.50;99.90;;;;;;5068220;28;20037;-60
2021/04/07 02:51:54;;;;;;;11.13;2.22;;;0.60;99.90;;;;;;5067526;28;20064;-60
2021/04/07 02:54:22;;;;;;;9.82;1.83;;;0.70;99.90;;;;;;5067135;28;20049;-60
2021/04/07 02:56:49;;;;;;;7.00;1.60;;;0.70;99.90;;;;;;5067176;28;20045;-60
2021/04/07 02:59:16;;;;;;;7.97;1.73;;;0.70;99.90;;;;;;5067127;28;20572;-60
2021/04/07 03:01:42;;;;;;;7.30;1.80;;;0.80;99.90;;;;;;5067715;28;20049;-60
2021/04/07 03:04:08;;;;;;;9.88;1.90;;;0.80;99.90;;;;;;5067282;28;20116;-60
2021/04/07 03:06:35;;;;;;;7.55;1.60;;;0.80;99.90;;;;;;5066806;28;20060;-60
2021/04/07 03:09:03;;;;;;;8.63;1.42;;;0.80;99.90;;;;;;5065992;28;20041;-60
2021/04/07 03:11:30;;;;;;;11.18;1.60;;;0.90;99.90;;;;;;5067224;28;20044;-60
2021/04/07 03:13:56;;;;;;;11.55;1.75;;;0.90;99.90;;;;;;5066335;28;20501;-60
2021/04/07 03:16:23;;;;;;;11.57;3.47;;;0.90;99.90;;;;;;5066976;28;20067;-60
2021/04/07 03:18:50;;;;;;;5.90;1.67;;;0.90;99.90;;;;;;5066657;28;20048;-60
2021/04/07 03:21:15;;;;;;;6.35;1.27;;;0.90;99.90;;;;;;5067522;28;20044;-60
2021/04/07 03:23:42;;;;;;;7.35;1.88;;;1.00;99.90;;;;;;5066637;28;20055;-60
2021/04/07 03:26:08;;;;;;;7.10;2.10;;;1.10;99.90;;;;;;5066913;28;20056;-60
2021/04/07 03:28:35;;;;;;;5.50;2.25;;;1.00;99.90;;;;;;5066853;28;20052;-60
2021/04/07 03:31:01;;;;;;;6.57;1.40;;;1.10;99.90;;;;;;5066641;28;20045;-60
2021/04/07 03:33:30;;;;;;;6.50;1.90;;;1.10;99.90;;;;;;5066568;28;20454;-61
2021/04/07 03:35:58;;;;;;;5.88;1.45;;;1.10;99.90;;;;;;5067155;28;20049;-60
2021/04/07 03:38:24;;;;;;;5.20;1.50;;;1.00;99.90;;;;;;5066486;28;20124;-60
2021/04/07 03:40:51;;;;;;;5.28;1.45;;;1.00;99.90;;;;;;5066799;28;20087;-60
2021/04/07 03:43:20;;;;;;;7.47;1.38;;;1.00;99.90;;;;;;5066842;28;20093;-60
2021/04/07 03:45:49;;;;;;;3.65;1.13;;;0.90;99.90;;;;;;5066336;28;20048;-61
2021/04/07 03:48:22;;;;;;;2.95;1.10;;;1.00;99.90;;;;;;5065957;28;20049;-60
2021/04/07 03:50:50;;;;;;;3.20;1.20;;;1.00;99.90;;;;;;5065018;28;20045;-60
2021/04/07 03:53:18;;;;;;;4.43;1.20;;;1.10;99.90;;;;;;5066566;28;20045;-60
2021/04/07 03:55:49;;;;;;;3.28;1.00;;;1.00;99.90;;;;;;5067005;28;20049;-60
2021/04/07 03:58:16;;;;;;;4.50;1.27;;;1.10;99.90;;;;;;5066944;28;20067;-60
2021/04/07 04:00:42;;;;;;;4.50;1.30;;;1.10;99.90;;;;;;5067194;28;20045;-61
2021/04/07 04:03:09;;;;;;;5.35;1.20;;;1.20;99.90;;;;;;5067045;28;20041;-60
2021/04/07 04:05:36;;;;;;;8.10;1.35;;;1.10;99.90;;;;;;5064361;28;20071;-60
2021/04/07 04:08:05;;;;;;;5.28;1.50;;;1.20;99.90;;;;;;5065268;28;20094;-60
2021/04/07 04:10:32;;;;;;;4.90;1.25;;;1.20;99.90;;;;;;5065962;28;20044;-60
2021/04/07 04:12:59;;;;;;;4.80;1.17;;;1.20;99.90;;;;;;5065834;28;20059;-60
2021/04/07 04:15:26;;;;;;;3.42;1.30;;;1.30;99.90;;;;;;5065881;28;20051;-60
2021/04/07 04:17:53;;;;;;;3.67;1.35;;;1.20;99.90;;;;;;5065516;28;20037;-60
2021/04/07 04:20:20;;;;;;;3.63;1.20;;;1.20;99.90;;;;;;5065743;28;20060;-60
2021/04/07 04:22:47;;;;;;;5.10;1.40;;;1.20;99.90;;;;;;5065564;28;20504;-60
2021/04/07 04:25:16;;;;;;;4.72;1.48;;;1.20;99.90;;;;;;5065623;28;20048;-61
2021/04/07 04:27:43;;;;;;;5.18;1.73;;;1.20;99.90;;;;;;5065595;28;20053;-60
2021/04/07 04:30:13;;;;;;;2.45;1.20;;;1.20;99.90;;;;;;5065481;28;20049;-60
2021/04/07 04:32:40;;;;;;;2.63;1.80;;;1.20;99.90;;;;;;5065426;28;20135;-61
2021/04/07 04:35:08;;;;;;;3.33;1.63;;;1.20;99.90;;;;;;5065538;28;20049;-61
2021/04/07 04:37:40;;;;;;;2.33;1.50;;;1.20;99.90;;;;;;5065110;28;20621;-60
2021/04/07 04:40:08;;;;;;;3.08;1.95;;;1.20;99.90;;;;;;5065253;28;20536;-61
2021/04/07 04:42:35;;;;;;;4.43;2.78;;;1.20;99.90;;;;;;5065255;28;20052;-61
2021/04/07 04:45:02;;;;;;;3.47;1.55;;;1.20;99.90;;;;;;5065337;28;20109;-60
2021/04/07 04:47:28;;;;;;;2.25;1.40;;;1.40;99.90;;;;;;5065090;28;20048;-60
2021/04/07 04:49:56;;;;;;;2.20;1.65;;;1.40;99.90;;;;;;5065295;28;20056;-61
2021/04/07 04:52:22;;;;;;;3.72;1.70;;;1.40;99.90;;;;;;5064930;28;20048;-61
2021/04/07 04:54:49;;;;;;;3.55;1.35;;;1.30;99.90;;;;;;5065046;28;20075;-60
2021/04/07 04:57:16;;;;;;;3.28;1.60;;;1.30;99.90;;;;;;5064910;28;20515;-60
2021/04/07 04:59:43;;;;;;;3.53;1.60;;;1.30;99.90;;;;;;5064711;28;20045;-60
2021/04/07 05:02:10;;;;;;;2.45;1.80;;;1.30;99.90;;;;;;5065112;28;20049;-61
2021/04/07 05:04:37;;;;;;;2.60;1.92;;;1.30;99.90;;;;;;5064290;28;20048;-61
2021/04/07 05:07:04;;;;;;;4.25;2.13;;;1.30;99.90;;;;;;5064646;28;20061;-60
2021/04/07 05:09:30;;;;;;;3.78;1.90;;;1.40;99.90;;;;;;5065019;28;20067;-61
2021/04/07 05:11:56;;;;;;;3.20;2.00;;;1.30;99.90;;;;;;5064801;28;20044;-60
2021/04/07 05:14:22;;;;;;;3.42;2.05;;;1.30;99.90;;;;;;5055730;28;20343;-60
2021/04/07 05:16:49;;;;;;;3.50;2.08;;;1.30;99.90;;;;;;5063628;28;20037;-61
2021/04/07 05:19:16;;;;;;;3.03;1.83;;;1.30;99.90;;;;;;5059050;28;20072;-58
2021/04/07 05:21:42;;;;;;;4.47;2.65;;;1.20;99.90;;;;;;5061316;28;20060;-58
2021/04/07 05:24:09;;;;;;;3.35;1.92;;;1.30;99.90;;;;;;5036120;28;20044;-64
2021/04/07 05:26:35;;;;;;;5.05;2.08;;;1.40;99.90;;;;;;5049967;28;20049;-60
2021/04/07 05:29:03;;;;;;;4.57;2.45;;;1.40;99.90;;;;;;5055285;28;20052;-60
2021/04/07 05:31:30;;;;;;;3.30;1.98;;;1.30;99.90;;;;;;5058579;28;20045;-60
2021/04/07 05:33:56;;;;;;;4.18;2.03;;;1.30;99.90;;;;;;5051384;28;20107;-60
2021/04/07 05:36:23;;;;;;;3.75;2.30;;;1.50;99.90;;;;;;5059976;28;20037;-60
2021/04/07 05:38:50;;;;;;;7.10;2.80;;;1.40;99.90;;;;;;5048375;28;20059;-60
2021/04/07 05:41:18;;;;;;;3.90;2.33;;;1.40;99.90;;;;;;5061086;28;20064;-60
2021/04/07 05:43:44;;;;;;;6.07;2.30;;;1.40;99.90;;;;;;5046207;28;20059;-60
2021/04/07 05:46:12;;;;;;;3.70;2.60;;;1.50;99.90;;;;;;5055935;28;20060;-60
2021/04/07 05:48:40;;;;;;;5.72;2.80;;;1.40;99.90;;;;;;5047969;28;20276;-60
2021/04/07 05:51:07;;;;;;;3.88;2.53;;;1.30;99.90;;;;;;5053088;28;20060;-61
2021/04/07 05:53:34;;;;;;;5.78;2.97;;;1.40;99.90;;;;;;5047270;28;20045;-60
2021/04/07 05:56:00;;;;;;;5.05;3.00;;;1.40;99.90;;;;;;5066101;28;20072;-60
2021/04/07 05:58:29;;;;;;;4.95;2.88;;;1.30;99.90;;;;;;5049548;28;20045;-60
2021/04/07 06:00:56;;;;;;;4.28;3.10;;;1.40;99.90;;;;;;5059573;28;20298;-60
2021/04/07 06:03:22;;;;;;;4.00;2.63;;;1.40;99.90;;;;;;5046383;28;20052;-60
2021/04/07 06:05:51;;;;;;;4.65;2.70;;;1.50;99.90;;;;;;5043533;28;20038;-65
2021/04/07 06:08:18;;;;;;;6.20;3.47;;;1.50;99.90;;;;;;5047972;28;20040;-63
2021/04/07 06:10:47;;;;;;;5.25;2.38;;;1.50;99.90;;;;;;5068342;28;20120;-63
2021/04/07 06:13:17;;;;;;;6.40;3.20;;;1.50;99.90;;;;;;5048013;28;20048;-63
2021/04/07 06:15:44;;;;;;;5.68;3.10;;;1.50;99.90;;;;;;5070380;28;20088;-63
2021/04/07 06:18:13;;;;;;;5.18;2.92;;;1.50;99.90;;;;;;5037261;28;20052;-63
2021/04/07 06:20:45;;;;;;;7.30;3.15;;;1.60;99.90;;;;;;5068107;28;20041;-63
2021/04/07 06:23:12;;;;;;;7.00;3.08;;;1.60;99.90;;;;;;5037848;28;20132;-63
2021/04/07 06:25:40;;;;;;;5.78;3.10;;;1.60;99.90;;;;;;5075294;28;20063;-63
2021/04/07 06:28:09;;;;;;;7.13;3.75;;;1.60;99.90;;;;;;5059107;28;20045;-64
2021/04/07 06:30:43;;;;;;;6.45;3.10;;;1.60;99.90;;;;;;5066118;28;20115;-63
2021/04/07 06:33:29;;;;;;;6.88;3.08;;;1.60;99.90;;;;;;5030646;28;20453;-63
2021/04/07 06:36:00;;;;;;;6.95;2.80;;;1.80;99.90;;;;;;5061942;28;20128;-63
2021/04/07 06:38:28;;;;;;;6.13;2.97;;;1.90;99.90;;;;;;5054339;28;20055;-63
2021/04/07 06:40:55;;;;;;;5.25;3.42;;;1.90;99.90;;;;;;5073961;28;20068;-63
2021/04/07 06:43:23;;;;;;;5.05;3.35;;;1.80;99.90;;;;;;5047401;28;20120;-63
2021/04/07 06:45:50;;;;;;;7.38;3.58;;;1.90;99.90;;;;;;5058292;28;20132;-63
2021/04/07 06:48:17;;;;;;;7.22;3.17;;;1.90;99.90;;;;;;5058470;28;20067;-63
2021/04/07 06:50:46;;;;;;;9.88;3.55;;;1.90;99.90;;;;;;5071606;28;20069;-63
2021/04/07 06:53:13;;;;;;;8.18;3.67;;;2.00;99.90;;;;;;5058129;28;20387;-63
2021/04/07 06:55:39;;;;;;;8.48;3.70;;;2.00;99.90;;;;;;5065100;28;20114;-63
2021/04/07 06:58:07;;;;;;;6.85;3.35;;;2.00;99.90;;;;;;5061345;28;20041;-63
2021/04/07 07:00:38;;;;;;;5.97;3.60;;;2.10;99.90;;;;;;5052666;28;20053;-63
2021/04/07 07:03:06;;;;;;;7.82;3.50;;;2.00;99.90;;;;;;5039730;28;20053;-63
2021/04/07 07:05:35;;;;;;;6.95;3.70;;;2.10;99.90;;;;;;5046451;28;20295;-63
2021/04/07 07:08:03;;;;;;;7.68;3.33;;;2.10;99.90;;;;;;5060273;28;20222;-63
2021/04/07 07:10:49;;;;;;;8.80;3.80;;;2.20;99.90;;;;;;5066531;28;20048;-63
2021/04/07 07:13:16;;;;;;;13.20;3.75;;;2.30;99.90;;;;;;5059789;28;20047;-64
2021/04/07 07:15:43;;;;;;;14.10;3.28;;;2.30;99.90;;;;;;5065010;28;20114;-63
2021/04/07 07:18:10;;;;;;;10.93;3.85;;;2.40;99.90;;;;;;5059971;28;20071;-64
2021/04/07 07:20:42;;;;;;;12.02;3.55;;;2.60;99.90;;;;;;5066128;28;20041;-64
2021/04/07 07:23:08;;;;;;;8.05;3.13;;;2.70;99.90;;;;;;5060818;28;20037;-64
2021/04/07 07:25:34;;;;;;;12.55;3.47;;;2.80;99.90;;;;;;5056279;28;20369;-64
2021/04/07 07:28:04;;;;;;;12.20;3.10;;;2.90;99.90;;;;;;5058487;28;20081;-63
2021/04/07 07:30:43;;;;;;;13.50;3.13;;;3.10;99.90;;;;;;5064618;28;20052;-64
2021/04/07 07:33:21;;;;;;;10.95;3.13;;;3.20;99.90;;;;;;5060061;28;20062;-64
2021/04/07 07:36:06;;;;;;;12.52;3.50;;;3.30;99.90;;;;;;5066698;28;20578;-63
2021/04/07 07:38:36;;;;;;;12.63;3.40;;;3.40;99.90;;;;;;5049552;28;20709;-64
2021/04/07 07:41:06;;;;;;;10.65;3.40;;;3.60;99.90;;;;;;5066041;28;20071;-64
2021/04/07 07:43:37;;;;;;;9.77;2.60;;;3.80;99.90;;;;;;5058676;28;20164;-64
2021/04/07 07:46:12;;;;;;;6.22;2.20;;;3.90;99.90;;;;;;5061182;28;20087;-64
2021/04/07 07:48:41;;;;;;;8.00;3.17;;;3.90;99.90;;;;;;5047531;28;20072;-63
2021/04/07 07:51:19;;;;;;;9.55;2.75;;;4.10;99.90;;;;;;5064740;28;20057;-63
2021/04/07 07:53:46;;;;;;;10.98;2.55;;;4.10;99.90;;;;;;5059050;28;20500;-63
2021/04/07 07:56:14;;;;;;;8.27;2.70;;;4.30;99.90;;;;;;5048410;28;20062;-63
2021/04/07 07:58:45;;;;;;;11.80;2.83;;;4.40;99.90;;;;;;5050145;28;20067;-63
2021/04/07 08:01:16;;;;;;;8.45;2.47;;;4.60;99.90;;;;;;5066442;28;20277;-63
2021/04/07 08:03:44;;;;;;;9.98;2.83;;;4.70;99.90;;;;;;5057267;28;20041;-63
2021/04/07 08:06:11;;;;;;;11.45;2.40;;;4.90;99.90;;;;;;5063128;28;20052;-66
2021/04/07 08:08:37;;;;;;;6.45;1.95;;;5.10;99.90;;;;;;5057883;28;20048;-64
2021/04/07 08:11:05;;;;;;;13.43;2.33;;;5.20;99.90;;;;;;5046723;28;20071;-64
2021/04/07 08:13:45;;;;;;;7.95;2.20;;;5.40;99.90;;;;;;5073086;28;20048;-64
2021/04/07 08:16:14;;;;;;;9.90;2.20;;;5.40;99.90;;;;;;5033029;28;20046;-63
2021/04/07 08:18:41;;;;;;;11.70;2.67;;;5.50;99.90;;;;;;5055613;28;20037;-63
2021/04/07 08:21:08;;;;;;;11.32;2.00;;;5.70;99.90;;;;;;5032806;28;20168;-63
2021/04/07 08:23:37;;;;;;;9.45;2.05;;;5.60;99.90;;;;;;5057571;28;20176;-64
2021/04/07 08:26:05;;;;;;;7.05;1.70;;;5.50;99.90;;;;;;5052119;28;20049;-63
2021/04/07 08:28:32;;;;;;;9.88;3.15;;;5.40;99.90;;;;;;5053968;28;20228;-64
2021/04/07 08:30:59;;;;;;;8.30;1.67;;;5.40;99.90;;;;;;5054486;28;20057;-64
2021/04/07 08:33:26;;;;;;;6.72;1.73;;;5.30;99.90;;;;;;5057081;28;20113;-63
2021/04/07 08:35:57;;;;;;;13.65;2.50;;;5.30;99.90;;;;;;5049809;28;20053;-63
2021/04/07 08:38:30;;;;;;;9.50;2.08;;;5.30;99.90;;;;;;5057067;28;20106;-64
2021/04/07 08:41:11;;;;;;;10.65;1.92;;;5.20;99.90;;;;;;5048507;28;20131;-64
2021/04/07 08:43:38;;;;;;;12.90;2.38;;;5.30;99.90;;;;;;5059004;28;20045;-64
2021/04/07 08:46:20;;;;;;;10.32;2.50;;;5.40;99.90;;;;;;5062158;28;20087;-64
2021/04/07 08:48:46;;;;;;;10.15;1.92;;;5.40;99.90;;;;;;5058532;28;20071;-64
2021/04/07 08:51:14;;;;;;;12.32;2.28;;;5.40;99.90;;;;;;5051007;28;20056;-64
2021/04/07 08:53:49;;;;;;;8.75;2.15;;;5.50;99.90;;;;;;5043875;28;20040;-64
2021/04/07 08:56:27;;;;;;;17.20;2.85;;;5.50;99.90;;;;;;5063224;28;20078;-64
2021/04/07 08:59:00;;;;;;;12.55;2.78;;;5.40;99.90;;;;;;5045177;28;20059;-64
2021/04/07 09:01:36;;;;;;;14.75;3.60;;;5.40;99.90;;;;;;5049502;28;20045;-64
2021/04/07 09:04:14;;;;;;;12.55;2.40;;;5.30;99.90;;;;;;5058817;28;20364;-64
2021/04/07 09:07:01;;;;;;;15.75;2.22;;;5.40;99.90;;;;;;5064067;28;20044;-64
2021/04/07 09:09:34;;;;;;;10.52;2.05;;;5.50;99.90;;;;;;5049458;28;20048;-64
2021/04/07 09:12:02;;;;;;;9.00;2.20;;;5.70;99.90;;;;;;5058936;28;20079;-64
2021/04/07 09:14:29;;;;;;;13.90;2.70;;;5.80;99.90;;;;;;5047811;28;20071;-64
2021/04/07 09:17:03;;;;;;;17.23;2.60;;;5.90;99.90;;;;;;5071722;28;20053;-65
2021/04/07 09:19:34;;;;;;;12.43;2.03;;;6.10;99.90;;;;;;5044063;28;20037;-65
2021/04/07 09:22:06;;;;;;;12.90;2.42;;;6.20;99.90;;;;;;5073597;28;20045;-65
2021/04/07 09:24:44;;;;;;;10.05;2.03;;;6.40;99.90;;;;;;5048056;28;20554;-66
2021/04/07 09:27:25;;;;;;;11.10;1.95;;;6.40;99.90;;;;;;5055813;28;20076;-66
2021/04/07 09:30:03;;;;;;;12.30;2.95;;;6.30;99.90;;;;;;5052882;28;20049;-64
2021/04/07 09:32:30;;;;;;;17.92;3.25;;;6.20;99.90;;;;;;5065328;28;20065;-64
2021/04/07 09:34:58;;;;;;;13.00;2.50;;;6.00;99.90;;;;;;5052399;28;20075;-63
2021/04/07 09:37:25;;;;;;;11.73;2.00;;;5.90;99.90;;;;;;5063592;28;20048;-62
2021/04/07 09:39:52;;;;;;;13.98;1.75;;;5.90;99.90;;;;;;5045721;28;20279;-63
2021/04/07 09:42:18;;;;;;;9.75;1.77;;;5.90;99.90;;;;;;5058127;28;20056;-63
2021/04/07 09:44:45;;;;;;;12.48;2.03;;;6.10;99.90;;;;;;5050007;28;20135;-63
2021/04/07 09:47:12;;;;;;;12.07;2.17;;;6.20;99.90;;;;;;5070152;28;20040;-63
2021/04/07 09:49:38;;;;;;;8.20;2.13;;;6.50;99.90;;;;;;5050420;28;20330;-63
2021/04/07 09:52:05;;;;;;;9.35;1.77;;;6.60;99.90;;;;;;5068116;28;20103;-63
2021/04/07 09:54:35;;;;;;;12.73;2.65;;;6.60;99.90;;;;;;5057933;28;20052;-62
2021/04/07 09:57:06;;;;;;;16.67;3.38;;;6.50;99.90;;;;;;5049964;28;20072;-62
2021/04/07 09:59:34;;;;;;;19.90;3.40;;;6.60;99.90;;;;;;5058881;28;20091;-63
2021/04/07 10:02:08;;;;;;;18.35;3.22;;;6.60;99.90;;;;;;5034319;28;20049;-65
2021/04/07 10:04:37;;;;;;;15.35;2.55;;;6.60;99.90;;;;;;5063043;28;20036;-65
2021/04/07 10:07:17;;;;;;;12.68;3.03;;;6.60;99.90;;;;;;5052335;28;20055;-67
2021/04/07 10:09:46;;;;;;;20.67;2.83;;;6.80;99.90;;;;;;5053522;28;20059;-67
2021/04/07 10:12:13;;;;;;;13.13;2.85;;;6.80;99.90;;;;;;5072192;28;20049;-65
2021/04/07 10:14:47;;;;;;;21.63;3.75;;;6.80;99.90;;;;;;5050131;28;20040;-66
2021/04/07 10:17:41;;;;;;;14.57;3.60;;;6.80;99.90;;;;;;5076352;28;20051;-66
2021/04/07 10:20:15;;;;;;;19.02;3.67;;;7.10;99.90;;;;;;5054531;28;20041;-67
2021/04/07 10:22:43;;;;;;;15.80;3.05;;;7.40;99.90;;;;;;5073606;28;20036;-67
2021/04/07 10:27:42;;;;;;;18.00;3.47;;;7.70;99.30;;;;;;5074301;28;20052;-65
2021/04/07 10:30:14;;;;;;;13.35;2.85;;;7.70;97.90;;;;;;5053652;28;20049;-62
2021/04/07 10:32:44;;;;;;;15.82;2.97;;;7.60;97.80;;;;;;5070032;28;20079;-65
2021/04/07 10:35:24;;;;;;;15.82;2.53;;;7.50;97.40;;;;;;5045527;28;20115;-66
2021/04/07 10:37:56;;;;;;;15.60;3.30;;;7.60;98.00;;;;;;5042512;28;20119;-65
2021/04/07 10:40:26;;;;;;;12.65;2.90;;;7.50;98.40;;;;;;5056785;28;20070;-65
2021/04/07 10:42:52;;;;;;;15.05;2.17;;;7.50;97.00;;;;;;5070912;28;20284;-66
2021/04/07 10:45:20;;;;;;;9.73;3.17;;;7.60;97.10;;;;;;5050566;28;20144;-66
2021/04/07 10:47:47;;;;;;;12.15;2.67;;;7.90;95.90;;;;;;5063878;28;20075;-66
2021/04/07 10:50:15;;;;;;;13.68;2.83;;;7.90;96.70;;;;;;5056307;28;20053;-66
2021/04/07 10:52:44;;;;;;;9.60;1.92;;;7.80;95.80;;;;;;5056240;28;20548;-66
2021/04/07 10:55:31;;;;;;;11.38;1.80;;;7.90;95.70;;;;;;5053105;28;20044;-66
2021/04/07 10:57:59;;;;;;;11.65;2.80;;;8.00;94.40;;;;;;5070754;28;20052;-66
2021/04/07 11:00:32;;;;;;;14.15;3.00;;;7.90;93.90;;;;;;5046505;28;20053;-66
2021/04/07 11:03:00;;;;;;;11.93;2.45;;;7.70;95.10;;;;;;5048897;28;20111;-66
2021/04/07 11:05:38;;;;;;;16.08;2.53;;;7.40;96.30;;;;;;5044085;28;20271;-66
2021/04/07 11:08:07;;;;;;;15.90;2.20;;;7.20;97.70;;;;;;5055517;28;20065;-66
2021/04/07 11:10:39;;;;;;;9.45;2.30;;;7.20;97.10;;;;;;5050924;28;20487;-66
2021/04/07 11:13:06;;;;;;;13.88;2.83;;;7.10;96.40;;;;;;5071615;28;20044;-66
2021/04/07 11:15:32;;;;;;;20.17;3.35;;;7.10;95.40;;;;;;5057484;28;20082;-66
2021/04/07 11:17:59;;;;;;;17.80;2.85;;;7.00;95.20;;;;;;5072493;28;20109;-66
2021/04/07 11:20:27;;;;;;;8.00;2.10;;;7.10;96.10;;;;;;5052371;28;20076;-66
2021/04/07 11:22:53;;;;;;;14.18;2.75;;;7.20;96.20;;;;;;5060405;28;20048;-66
2021/04/07 11:25:20;;;;;;;12.25;2.28;;;7.20;95.00;;;;;;5055857;28;20079;-66
2021/04/07 11:27:47;;;;;;;13.27;2.65;;;7.10;96.20;;;;;;5073917;28;20040;-66
2021/04/07 11:30:14;;;;;;;13.63;2.38;;;6.90;96.10;;;;;;5054351;28;20056;-66
2021/04/07 11:32:50;;;;;;;14.85;3.15;;;6.80;97.00;;;;;;5070859;28;20088;-66
2021/04/07 11:35:26;;;;;;;10.70;2.80;;;6.80;96.50;;;;;;5054940;28;20060;-66
2021/04/07 11:37:57;;;;;;;9.68;2.13;;;6.70;94.60;;;;;;5063503;28;20049;-66
2021/04/07 11:45:21;;;;;;;11.40;2.25;;;7.40;93.90;;;;;;5046636;28;19925;-66
2021/04/07 11:47:47;;;;;;;17.63;2.72;;;7.50;94.00;;;;;;5058112;28;20448;-66
2021/04/07 11:50:14;;;;;;;9.10;3.00;;;7.80;94.90;;;;;;5048443;28;20037;-66
2021/04/07 11:52:40;;;;;;;6.20;1.92;;;7.70;94.30;;;;;;5058811;28;20462;-66
2021/04/07 11:55:06;;;;;;;7.88;1.83;;;7.10;95.10;;;;;;5050100;28;20041;-66
2021/04/07 11:57:33;;;;;;;8.27;1.80;;;6.10;97.50;;;;;;5068553;28;20045;-66
2021/04/07 11:59:59;;;;;;;8.95;2.35;;;5.40;98.90;;;;;;5054891;28;20059;-66
2021/04/07 12:02:26;;;;;;;7.07;1.48;;;5.00;99.90;;;;;;5057159;28;20057;-66
2021/04/07 12:04:53;;;;;;;8.18;1.77;;;4.50;99.90;;;;;;5049675;28;20049;-66
2021/04/07 12:07:19;;;;;;;8.85;1.52;;;4.30;99.90;;;;;;5053006;28;20041;-66
2021/04/07 12:09:46;;;;;;;12.90;1.88;;;4.60;99.90;;;;;;5055613;28;20045;-66
2021/04/07 12:12:13;;;;;;;13.02;1.70;;;4.80;99.90;;;;;;5063776;28;20145;-66
2021/04/07 12:14:40;;;;;;;11.93;2.47;;;5.10;99.90;;;;;;5053530;28;20123;-66
2021/04/07 12:17:06;;;;;;;12.63;1.95;;;5.40;99.90;;;;;;5063049;28;20064;-66
2021/04/07 12:19:33;;;;;;;18.05;2.92;;;5.70;99.90;;;;;;5060228;28;20048;-66
2021/04/07 12:21:59;;;;;;;15.90;2.47;;;5.90;99.90;;;;;;5048553;28;20053;-67
2021/04/07 12:24:26;;;;;;;10.40;2.80;;;6.00;99.90;;;;;;5057088;28;20041;-66
2021/04/07 12:26:52;;;;;;;13.13;2.38;;;6.10;99.90;;;;;;5050680;28;20053;-66
2021/04/07 12:29:18;;;;;;;16.73;2.72;;;6.10;99.90;;;;;;5058993;28;20045;-66
2021/04/07 12:31:44;;;;;;;15.27;2.60;;;6.30;99.90;;;;;;5053866;28;20056;-66
2021/04/07 12:34:11;;;;;;;11.13;2.63;;;6.50;99.90;;;;;;5063613;28;20124;-67
2021/04/07 12:36:38;;;;;;;15.63;3.15;;;6.70;99.90;;;;;;5059201;28;20056;-65
2021/04/07 12:39:05;;;;;;;10.00;2.10;;;6.90;99.90;;;;;;5066357;28;20052;-65
2021/04/07 12:41:44;;;;;;;19.00;3.70;;;7.10;99.90;;;;;;5051933;28;20045;-66
2021/04/07 12:44:11;;;;;;;17.77;2.47;;;7.10;99.90;;;;;;5065344;28;20049;-66
2021/04/07 12:46:38;;;;;;;13.10;3.42;;;6.90;99.80;;;;;;5057237;28;20555;-66
2021/04/07 12:49:04;;;;;;;15.10;2.78;;;6.60;99.60;;;;;;5060459;28;20059;-65
2021/04/07 12:51:30;;;;;;;14.88;2.97;;;6.60;99.20;;;;;;5039448;28;20045;-65
2021/04/07 12:53:57;;;;;;;8.65;2.00;;;6.40;99.90;;;;;;5058101;28;20057;-65
2021/04/07 12:56:24;;;;;;;13.55;2.17;;;6.10;97.10;;;;;;5053964;28;20041;-65
2021/04/07 12:58:51;;;;;;;8.13;2.15;;;5.80;99.00;;;;;;5055406;28;20037;-66
2021/04/07 13:01:18;;;;;;;6.40;1.30;;;5.10;99.80;;;;;;5052426;28;20055;-66
2021/04/07 13:03:44;;;;;;;14.63;2.45;;;4.30;99.90;;;;;;5065392;28;20081;-66
2021/04/07 13:06:11;;;;;;;9.35;2.20;;;3.90;99.90;;;;;;5051891;28;20125;-66